createdAt,value
2022-10-28T00:01:07.780Z,11.70
2022-10-28T00:06:19.315Z,11.60
2022-10-28T00:11:33.128Z,11.40
2022-10-28T00:16:40.990Z,11.50
2022-10-28T00:21:48.361Z,11.40
2022-10-28T00:26:55.137Z,11.30
2022-10-28T00:32:02.126Z,11.40
2022-10-28T00:37:08.918Z,11.30
2022-10-28T00:42:19.726Z,11.40
2022-10-28T00:47:39.465Z,11.50
2022-10-28T00:52:50.190Z,11.50
2022-10-28T00:57:59.108Z,11.60
2022-10-28T01:03:06.410Z,11.50
2022-10-28T01:08:13.762Z,11.40
2022-10-28T01:13:28.013Z,11.40
2022-10-28T01:18:45.159Z,11.30
2022-10-28T01:24:18.415Z,11.30
2022-10-28T01:29:52.785Z,11.40
2022-10-28T01:40:56.669Z,11.60
2022-10-28T01:46:07.002Z,11.50
2022-10-28T01:51:29.966Z,11.40
2022-10-28T01:56:41.486Z,11.60
2022-10-28T02:01:48.333Z,11.40
2022-10-28T02:06:58.440Z,11.60
2022-10-28T02:12:27.031Z,11.70
2022-10-28T02:18:12.269Z,11.70
2022-10-28T02:23:46.082Z,11.50
2022-10-28T02:29:06.606Z,11.30
2022-10-28T02:34:17.801Z,11.30
2022-10-28T02:39:29.419Z,11.30
2022-10-28T02:44:40.667Z,11.20
2022-10-28T02:49:51.834Z,11.20
2022-10-28T02:55:01.867Z,11.10
2022-10-28T03:05:47.891Z,11.20
2022-10-28T03:10:54.941Z,11.40
2022-10-28T03:16:02.989Z,11.40
2022-10-28T03:21:10.100Z,11.50
2022-10-28T03:26:17.955Z,11.50
2022-10-28T03:31:27.687Z,11.40
2022-10-28T03:36:35.132Z,11.50
2022-10-28T03:41:41.801Z,11.40
2022-10-28T03:46:49.943Z,11.40
2022-10-28T03:51:59.088Z,11.50
2022-10-28T03:57:06.885Z,11.60
2022-10-28T04:02:15.437Z,11.70
2022-10-28T04:07:22.674Z,11.70
2022-10-28T04:12:29.405Z,11.70
2022-10-28T04:17:40.801Z,11.70
2022-10-28T04:22:47.861Z,11.60
2022-10-28T04:27:56.990Z,11.70
2022-10-28T04:33:04.520Z,11.60
2022-10-28T04:38:14.371Z,11.50
2022-10-28T04:43:21.617Z,11.30
2022-10-28T04:48:29.962Z,11.20
2022-10-28T04:53:37.802Z,11.20
2022-10-28T04:58:44.601Z,11.30
2022-10-28T05:03:51.341Z,11.40
2022-10-28T05:08:59.006Z,11.30
2022-10-28T05:14:06.102Z,11.30
2022-10-28T05:19:13.503Z,11.30
2022-10-28T05:24:23.698Z,11.30
2022-10-28T05:29:33.425Z,11.30
2022-10-28T05:34:40.183Z,11.10
2022-10-28T05:39:46.764Z,11.20
2022-10-28T05:44:54.183Z,11.20
2022-10-28T05:50:02.580Z,11.30
2022-10-28T05:55:09.959Z,11.40
2022-10-28T06:00:23.697Z,11.50
2022-10-28T06:05:30.685Z,11.40
2022-10-28T06:10:37.563Z,11.40
2022-10-28T06:15:43.196Z,11.50
2022-10-28T06:20:59.602Z,11.40
2022-10-28T06:26:06.489Z,11.50
2022-10-28T06:31:13.808Z,11.60
2022-10-28T06:36:23.564Z,11.60
2022-10-28T06:41:31.514Z,11.50
2022-10-28T06:46:40.530Z,11.50
2022-10-28T06:51:51.081Z,11.50
2022-10-28T06:56:59.921Z,11.50
2022-10-28T07:02:07.884Z,11.60
2022-10-28T07:07:16.458Z,11.60
2022-10-28T07:12:24.146Z,11.60
2022-10-28T07:17:30.982Z,11.40
2022-10-28T07:22:41.270Z,11.50
2022-10-28T07:27:49.514Z,11.80
2022-10-28T07:32:58.120Z,11.90
2022-10-28T07:38:05.346Z,12.00
2022-10-28T07:43:12.369Z,12.00
2022-10-28T07:48:19.108Z,12.00
2022-10-28T07:53:28.850Z,12.20
2022-10-28T07:58:38.764Z,12.30
2022-10-28T08:03:49.091Z,12.40
2022-10-28T08:09:00.204Z,12.40
2022-10-28T08:14:06.852Z,12.50
2022-10-28T08:19:14.555Z,12.50
2022-10-28T08:24:21.517Z,12.60
2022-10-28T08:29:30.173Z,12.70
2022-10-28T08:34:40.806Z,12.70
2022-10-28T08:39:47.878Z,12.80
2022-10-28T08:45:27.185Z,12.80
2022-10-28T08:50:42.452Z,12.90
2022-10-28T08:55:53.063Z,13.00
2022-10-28T09:01:02.678Z,13.10
2022-10-28T09:06:12.188Z,13.30
2022-10-28T09:11:45.436Z,13.40
2022-10-28T09:16:59.454Z,13.40
2022-10-28T09:22:48.892Z,13.50
2022-10-28T09:28:09.099Z,13.60
2022-10-28T09:33:38.689Z,13.50
2022-10-28T09:38:48.083Z,13.70
2022-10-28T09:44:05.115Z,13.80
2022-10-28T09:49:19.225Z,13.90
2022-10-28T09:54:33.209Z,14.00
2022-10-28T09:59:41.154Z,14.10
2022-10-28T10:04:48.852Z,14.20
2022-10-28T10:09:56.522Z,14.30
2022-10-28T10:15:06.497Z,14.50
2022-10-28T10:20:20.681Z,14.70
2022-10-28T10:25:31.647Z,14.60
2022-10-28T10:30:47.940Z,14.60
2022-10-28T10:36:02.288Z,14.80
2022-10-28T10:41:10.583Z,14.80
2022-10-28T10:46:19.955Z,15.00
2022-10-28T10:51:30.895Z,15.20
2022-10-28T10:56:38.687Z,15.30
2022-10-28T11:01:48.916Z,15.40
2022-10-28T11:06:58.613Z,15.80
2022-10-28T11:12:26.923Z,15.80
2022-10-28T11:17:36.825Z,15.80
2022-10-28T11:22:48.915Z,15.90
2022-10-28T11:28:30.423Z,15.70
2022-10-28T11:33:47.854Z,15.90
2022-10-28T11:39:23.533Z,15.60
2022-10-28T11:44:56.900Z,15.90
2022-10-28T11:50:11.302Z,15.90
2022-10-28T11:55:36.761Z,15.80
2022-10-28T12:01:00.023Z,16.00
2022-10-28T12:06:49.144Z,16.10
2022-10-28T12:12:19.067Z,16.30
2022-10-28T12:17:36.913Z,16.30
2022-10-28T12:22:50.190Z,16.50
2022-10-28T12:28:03.910Z,16.50
2022-10-28T12:33:29.463Z,16.40
2022-10-28T12:39:00.274Z,16.50
2022-10-28T12:44:11.580Z,16.70
2022-10-28T12:49:34.977Z,16.60
2022-10-28T12:54:55.568Z,16.60
2022-10-28T13:00:16.436Z,16.90
2022-10-28T13:05:31.222Z,16.80
2022-10-28T13:11:11.068Z,16.80
2022-10-28T13:16:37.452Z,16.80
2022-10-28T13:22:06.897Z,16.80
2022-10-28T13:27:16.687Z,16.80
2022-10-28T13:32:41.171Z,16.90
2022-10-28T13:37:52.606Z,16.80
2022-10-28T13:43:01.716Z,16.80
2022-10-28T13:48:35.151Z,16.80
2022-10-28T13:53:51.577Z,16.70
2022-10-28T13:59:06.277Z,16.70
2022-10-28T14:04:26.551Z,16.60
2022-10-28T14:09:37.253Z,16.50
2022-10-28T14:15:09.622Z,16.80
2022-10-28T14:20:39.890Z,16.60
2022-10-28T14:25:57.229Z,16.40
2022-10-28T14:31:19.152Z,16.30
2022-10-28T14:37:03.931Z,16.20
2022-10-28T14:42:43.895Z,16.30
2022-10-28T14:48:31.435Z,16.10
2022-10-28T14:53:39.893Z,16.00
2022-10-28T14:58:49.470Z,15.90
2022-10-28T15:04:08.187Z,15.90
2022-10-28T15:09:35.372Z,15.90
2022-10-28T15:14:50.888Z,15.80
2022-10-28T15:20:05.113Z,15.60
2022-10-28T15:25:27.242Z,15.60
2022-10-28T15:30:36.436Z,15.40
2022-10-28T15:35:44.615Z,15.30
2022-10-28T15:40:53.329Z,15.20
2022-10-28T15:46:14.158Z,15.20
2022-10-28T15:51:24.021Z,15.20
2022-10-28T15:56:32.266Z,15.10
2022-10-28T16:01:42.421Z,15.00
2022-10-28T16:06:59.155Z,14.90
2022-10-28T16:12:22.036Z,14.80
2022-10-28T16:17:35.332Z,14.70
2022-10-28T16:22:45.571Z,14.60
2022-10-28T16:27:55.978Z,14.60
2022-10-28T16:33:03.403Z,14.50
2022-10-28T16:38:15.347Z,14.40
2022-10-28T16:43:26.454Z,14.40
2022-10-28T16:48:33.405Z,14.30
2022-10-28T16:53:41.515Z,14.30
2022-10-28T16:58:49.682Z,14.20
2022-10-28T17:04:00.027Z,14.20
2022-10-28T17:09:06.766Z,14.20
2022-10-28T17:14:13.671Z,14.20
2022-10-28T17:19:21.148Z,14.20
2022-10-28T17:24:28.124Z,14.10
2022-10-28T17:29:36.850Z,14.10
2022-10-28T17:34:43.791Z,14.10
2022-10-28T17:39:51.282Z,14.00
2022-10-28T17:44:59.072Z,14.00
2022-10-28T17:50:06.547Z,14.00
2022-10-28T17:55:13.337Z,13.90
2022-10-28T18:00:20.069Z,13.90
2022-10-28T18:05:26.883Z,13.80
2022-10-28T18:10:33.529Z,13.90
2022-10-28T18:15:40.799Z,13.80
2022-10-28T18:20:55.700Z,13.70
2022-10-28T18:26:08.035Z,13.70
2022-10-28T18:31:18.402Z,13.50
2022-10-28T18:36:29.447Z,13.60
2022-10-28T18:41:40.386Z,13.60
2022-10-28T18:46:47.053Z,13.60
2022-10-28T18:51:53.761Z,13.60
2022-10-28T18:57:00.435Z,13.60
2022-10-28T19:02:08.096Z,13.60
2022-10-28T19:07:14.975Z,13.60
2022-10-28T19:12:21.647Z,13.60
2022-10-28T19:17:28.342Z,13.70
2022-10-28T19:22:35.080Z,13.70
2022-10-28T19:27:41.814Z,13.60
2022-10-28T19:32:48.422Z,13.60
2022-10-28T19:37:55.913Z,13.60
2022-10-28T19:43:04.450Z,13.50
2022-10-28T19:48:11.153Z,13.40
2022-10-28T19:53:17.876Z,13.40
2022-10-28T19:58:24.632Z,13.30
2022-10-28T20:03:34.527Z,13.40
2022-10-28T20:08:44.854Z,13.30
2022-10-28T20:14:04.619Z,13.40
2022-10-28T20:19:11.553Z,13.30
2022-10-28T20:24:18.240Z,13.40
2022-10-28T20:29:25.180Z,13.30
2022-10-28T20:34:32.204Z,13.40
2022-10-28T20:39:39.490Z,13.40
2022-10-28T20:44:46.451Z,13.50
2022-10-28T20:49:54.629Z,13.60
2022-10-28T20:55:01.994Z,13.50
2022-10-28T21:00:10.341Z,13.40
2022-10-28T21:05:17.539Z,13.40
2022-10-28T21:10:25.014Z,13.30
2022-10-28T21:15:33.696Z,13.20
2022-10-28T21:20:41.982Z,13.30
2022-10-28T21:26:03.288Z,13.20
2022-10-28T21:31:14.254Z,13.20
2022-10-28T21:36:23.631Z,13.10
2022-10-28T21:41:30.750Z,12.90
2022-10-28T21:46:37.887Z,12.80
2022-10-28T21:51:44.694Z,12.80
2022-10-28T21:56:54.660Z,12.90
2022-10-28T22:02:01.917Z,12.90
2022-10-28T22:07:09.055Z,13.00
2022-10-28T22:12:15.910Z,13.10
2022-10-28T22:17:23.202Z,13.00
2022-10-28T22:22:31.487Z,13.10
2022-10-28T22:27:38.827Z,13.00
2022-10-28T22:32:45.887Z,13.10
2022-10-28T22:37:53.047Z,13.30
2022-10-28T22:43:00.517Z,13.30
2022-10-28T22:48:07.806Z,13.20
2022-10-28T22:53:14.776Z,13.30
2022-10-28T22:58:22.112Z,13.40
2022-10-28T23:03:29.340Z,13.30
2022-10-28T23:08:36.570Z,13.30
2022-10-28T23:13:44.028Z,13.20
2022-10-28T23:18:52.521Z,13.20
2022-10-28T23:24:02.152Z,13.10
2022-10-28T23:29:09.107Z,13.10
2022-10-28T23:34:16.424Z,13.20
2022-10-28T23:39:24.849Z,13.30
2022-10-28T23:44:31.936Z,13.20
2022-10-28T23:49:38.882Z,13.20
2022-10-28T23:54:45.830Z,13.00
2022-10-28T23:59:53.987Z,13.20
